sensor_id;sensor_type;location;lat;lon;timestamp;P1;durP1;ratioP1;P2;durP2;ratioP2
19826;SDS011;10074;52.018;4.726;2023-05-10T00:00:46;3.72;;;2.13;;
19826;SDS011;10074;52.018;4.726;2023-05-10T00:05:46;2.10;;;1.55;;
19826;SDS011;10074;52.018;4.726;2023-05-10T00:10:46;1.50;;;1.40;;
19826;SDS011;10074;52.018;4.726;2023-05-10T00:15:47;2.63;;;2.22;;
19826;SDS011;10074;52.018;4.726;2023-05-10T00:20:47;2.45;;;1.63;;
19826;SDS011;10074;52.018;4.726;2023-05-10T00:25:48;2.05;;;1.55;;
19826;SDS011;10074;52.018;4.726;2023-05-10T00:30:49;3.15;;;1.92;;
19826;SDS011;10074;52.018;4.726;2023-05-10T00:35:49;2.25;;;2.05;;
19826;SDS011;10074;52.018;4.726;2023-05-10T00:40:50;1.90;;;1.80;;
19826;SDS011;10074;52.018;4.726;2023-05-10T00:45:50;1.83;;;1.73;;
19826;SDS011;10074;52.018;4.726;2023-05-10T00:50:50;3.43;;;1.60;;
19826;SDS011;10074;52.018;4.726;2023-05-10T00:55:51;2.30;;;1.77;;
19826;SDS011;10074;52.018;4.726;2023-05-10T01:00:51;3.45;;;3.15;;
19826;SDS011;10074;52.018;4.726;2023-05-10T01:05:52;1.63;;;1.53;;
19826;SDS011;10074;52.018;4.726;2023-05-10T01:10:53;4.37;;;3.20;;
19826;SDS011;10074;52.018;4.726;2023-05-10T01:15:54;2.28;;;2.08;;
19826;SDS011;10074;52.018;4.726;2023-05-10T01:26:20;2.03;;;1.93;;
19826;SDS011;10074;52.018;4.726;2023-05-10T01:36:40;2.90;;;2.30;;
19826;SDS011;10074;52.018;4.726;2023-05-10T01:41:54;5.13;;;2.03;;
19826;SDS011;10074;52.018;4.726;2023-05-10T01:52:19;3.60;;;3.30;;
19826;SDS011;10074;52.018;4.726;2023-05-10T01:57:28;6.40;;;3.60;;
19826;SDS011;10074;52.018;4.726;2023-05-10T02:02:45;3.80;;;2.77;;
19826;SDS011;10074;52.018;4.726;2023-05-10T02:07:47;3.45;;;3.15;;
19826;SDS011;10074;52.018;4.726;2023-05-10T02:12:49;3.30;;;2.73;;
19826;SDS011;10074;52.018;4.726;2023-05-10T02:17:52;4.33;;;2.83;;
19826;SDS011;10074;52.018;4.726;2023-05-10T02:22:55;4.68;;;2.97;;
19826;SDS011;10074;52.018;4.726;2023-05-10T02:27:57;4.43;;;3.25;;
19826;SDS011;10074;52.018;4.726;2023-05-10T02:33:01;6.80;;;4.77;;
19826;SDS011;10074;52.018;4.726;2023-05-10T02:38:04;4.57;;;3.87;;
19826;SDS011;10074;52.018;4.726;2023-05-10T02:43:07;4.10;;;3.80;;
19826;SDS011;10074;52.018;4.726;2023-05-10T02:48:11;6.03;;;3.80;;
19826;SDS011;10074;52.018;4.726;2023-05-10T02:53:15;4.13;;;3.20;;
19826;SDS011;10074;52.018;4.726;2023-05-10T02:58:20;2.80;;;2.47;;
19826;SDS011;10074;52.018;4.726;2023-05-10T03:03:21;3.47;;;3.17;;
19826;SDS011;10074;52.018;4.726;2023-05-10T03:08:22;4.32;;;3.15;;
19826;SDS011;10074;52.018;4.726;2023-05-10T03:14:08;5.68;;;3.80;;
19826;SDS011;10074;52.018;4.726;2023-05-10T03:19:01;3.20;;;2.90;;
19826;SDS011;10074;52.018;4.726;2023-05-10T03:24:08;4.10;;;2.53;;
19826;SDS011;10074;52.018;4.726;2023-05-10T03:29:12;3.38;;;2.17;;
19826;SDS011;10074;52.018;4.726;2023-05-10T03:34:14;4.60;;;4.00;;
19826;SDS011;10074;52.018;4.726;2023-05-10T03:39:14;4.40;;;3.03;;
19826;SDS011;10074;52.018;4.726;2023-05-10T03:44:15;3.47;;;2.65;;
19826;SDS011;10074;52.018;4.726;2023-05-10T03:49:16;6.77;;;3.70;;
19826;SDS011;10074;52.018;4.726;2023-05-10T03:54:16;3.92;;;3.63;;
19826;SDS011;10074;52.018;4.726;2023-05-10T03:59:17;3.50;;;2.70;;
19826;SDS011;10074;52.018;4.726;2023-05-10T04:04:17;3.53;;;2.83;;
19826;SDS011;10074;52.018;4.726;2023-05-10T04:09:18;11.20;;;4.70;;
19826;SDS011;10074;52.018;4.726;2023-05-10T04:14:19;4.77;;;3.60;;
19826;SDS011;10074;52.018;4.726;2023-05-10T04:19:19;4.63;;;3.80;;
19826;SDS011;10074;52.018;4.726;2023-05-10T04:24:19;4.10;;;3.43;;
19826;SDS011;10074;52.018;4.726;2023-05-10T04:29:19;6.47;;;3.70;;
19826;SDS011;10074;52.018;4.726;2023-05-10T04:34:20;4.93;;;3.93;;
19826;SDS011;10074;52.018;4.726;2023-05-10T04:39:21;3.37;;;3.00;;
19826;SDS011;10074;52.018;4.726;2023-05-10T04:44:21;3.90;;;3.20;;
19826;SDS011;10074;52.018;4.726;2023-05-10T04:49:21;5.57;;;4.57;;
19826;SDS011;10074;52.018;4.726;2023-05-10T04:54:22;5.03;;;4.53;;
19826;SDS011;10074;52.018;4.726;2023-05-10T04:59:22;7.43;;;3.27;;
19826;SDS011;10074;52.018;4.726;2023-05-10T05:04:23;10.10;;;3.37;;
19826;SDS011;10074;52.018;4.726;2023-05-10T05:09:24;4.50;;;4.10;;
19826;SDS011;10074;52.018;4.726;2023-05-10T05:14:24;6.93;;;4.07;;
19826;SDS011;10074;52.018;4.726;2023-05-10T05:19:27;4.82;;;3.78;;
19826;SDS011;10074;52.018;4.726;2023-05-10T05:24:27;7.03;;;4.00;;
19826;SDS011;10074;52.018;4.726;2023-05-10T05:29:27;4.90;;;3.13;;
19826;SDS011;10074;52.018;4.726;2023-05-10T05:34:28;4.50;;;2.97;;
19826;SDS011;10074;52.018;4.726;2023-05-10T05:39:28;2.90;;;2.63;;
19826;SDS011;10074;52.018;4.726;2023-05-10T05:44:29;2.60;;;2.40;;
19826;SDS011;10074;52.018;4.726;2023-05-10T05:49:29;4.63;;;3.00;;
19826;SDS011;10074;52.018;4.726;2023-05-10T05:54:30;3.38;;;2.97;;
19826;SDS011;10074;52.018;4.726;2023-05-10T05:59:31;3.80;;;2.22;;
19826;SDS011;10074;52.018;4.726;2023-05-10T06:04:31;3.75;;;2.45;;
19826;SDS011;10074;52.018;4.726;2023-05-10T06:09:31;4.20;;;2.38;;
19826;SDS011;10074;52.018;4.726;2023-05-10T06:14:31;3.57;;;1.97;;
19826;SDS011;10074;52.018;4.726;2023-05-10T06:19:32;10.53;;;2.90;;
19826;SDS011;10074;52.018;4.726;2023-05-10T06:24:32;3.37;;;2.27;;
19826;SDS011;10074;52.018;4.726;2023-05-10T06:29:32;3.27;;;2.53;;
19826;SDS011;10074;52.018;4.726;2023-05-10T06:34:33;2.83;;;2.37;;
19826;SDS011;10074;52.018;4.726;2023-05-10T06:39:33;3.43;;;2.43;;
19826;SDS011;10074;52.018;4.726;2023-05-10T06:44:33;4.03;;;1.77;;
19826;SDS011;10074;52.018;4.726;2023-05-10T06:49:34;6.53;;;2.30;;
19826;SDS011;10074;52.018;4.726;2023-05-10T06:54:34;3.53;;;2.80;;
19826;SDS011;10074;52.018;4.726;2023-05-10T06:59:34;3.23;;;1.90;;
19826;SDS011;10074;52.018;4.726;2023-05-10T07:04:36;3.03;;;1.92;;
19826;SDS011;10074;52.018;4.726;2023-05-10T07:09:36;2.85;;;1.60;;
19826;SDS011;10074;52.018;4.726;2023-05-10T07:14:36;3.92;;;3.22;;
19826;SDS011;10074;52.018;4.726;2023-05-10T07:19:37;2.88;;;2.08;;
19826;SDS011;10074;52.018;4.726;2023-05-10T07:24:37;2.23;;;1.90;;
19826;SDS011;10074;52.018;4.726;2023-05-10T07:29:37;1.83;;;1.73;;
19826;SDS011;10074;52.018;4.726;2023-05-10T07:34:38;1.67;;;1.30;;
19826;SDS011;10074;52.018;4.726;2023-05-10T07:39:38;1.73;;;1.33;;
19826;SDS011;10074;52.018;4.726;2023-05-10T07:44:38;2.73;;;2.53;;
19826;SDS011;10074;52.018;4.726;2023-05-10T07:49:39;3.67;;;2.43;;
19826;SDS011;10074;52.018;4.726;2023-05-10T07:54:39;1.98;;;1.67;;
19826;SDS011;10074;52.018;4.726;2023-05-10T07:59:40;1.40;;;1.30;;
19826;SDS011;10074;52.018;4.726;2023-05-10T08:04:40;1.00;;;1.00;;
19826;SDS011;10074;52.018;4.726;2023-05-10T08:09:40;0.90;;;0.73;;
19826;SDS011;10074;52.018;4.726;2023-05-10T08:14:41;1.65;;;0.80;;
19826;SDS011;10074;52.018;4.726;2023-05-10T08:19:41;1.83;;;0.93;;
19826;SDS011;10074;52.018;4.726;2023-05-10T08:24:41;1.07;;;0.97;;
19826;SDS011;10074;52.018;4.726;2023-05-10T08:29:42;6.72;;;1.15;;
19826;SDS011;10074;52.018;4.726;2023-05-10T08:34:42;1.47;;;1.00;;
19826;SDS011;10074;52.018;4.726;2023-05-10T08:39:43;1.37;;;1.27;;
19826;SDS011;10074;52.018;4.726;2023-05-10T08:44:43;2.67;;;0.98;;
19826;SDS011;10074;52.018;4.726;2023-05-10T08:49:44;2.03;;;1.90;;
19826;SDS011;10074;52.018;4.726;2023-05-10T08:54:48;5.30;;;2.40;;
19826;SDS011;10074;52.018;4.726;2023-05-10T08:59:49;1.70;;;1.60;;
19826;SDS011;10074;52.018;4.726;2023-05-10T09:04:49;1.17;;;1.00;;
19826;SDS011;10074;52.018;4.726;2023-05-10T09:09:49;2.10;;;1.10;;
19826;SDS011;10074;52.018;4.726;2023-05-10T09:14:50;1.30;;;1.20;;
19826;SDS011;10074;52.018;4.726;2023-05-10T09:19:57;2.80;;;1.50;;
19826;SDS011;10074;52.018;4.726;2023-05-10T09:25:11;1.83;;;1.57;;
19826;SDS011;10074;52.018;4.726;2023-05-10T09:30:31;1.47;;;1.37;;
19826;SDS011;10074;52.018;4.726;2023-05-10T09:35:31;3.40;;;1.45;;
19826;SDS011;10074;52.018;4.726;2023-05-10T09:40:33;1.63;;;1.10;;
19826;SDS011;10074;52.018;4.726;2023-05-10T09:45:34;1.33;;;0.98;;
19826;SDS011;10074;52.018;4.726;2023-05-10T09:50:35;1.60;;;0.73;;
19826;SDS011;10074;52.018;4.726;2023-05-10T10:00:36;0.80;;;0.80;;
19826;SDS011;10074;52.018;4.726;2023-05-10T10:05:39;1.55;;;1.08;;
19826;SDS011;10074;52.018;4.726;2023-05-10T10:10:41;3.07;;;1.40;;
19826;SDS011;10074;52.018;4.726;2023-05-10T10:15:42;1.70;;;0.73;;
19826;SDS011;10074;52.018;4.726;2023-05-10T10:20:44;1.17;;;1.08;;
19826;SDS011;10074;52.018;4.726;2023-05-10T10:25:45;1.00;;;1.00;;
19826;SDS011;10074;52.018;4.726;2023-05-10T10:30:49;2.15;;;1.67;;
19826;SDS011;10074;52.018;4.726;2023-05-10T10:35:53;1.05;;;0.95;;
19826;SDS011;10074;52.018;4.726;2023-05-10T10:41:10;0.60;;;0.60;;
19826;SDS011;10074;52.018;4.726;2023-05-10T10:46:26;1.15;;;0.98;;
19826;SDS011;10074;52.018;4.726;2023-05-10T10:51:28;0.70;;;0.70;;
19826;SDS011;10074;52.018;4.726;2023-05-10T10:56:29;1.30;;;1.00;;
19826;SDS011;10074;52.018;4.726;2023-05-10T11:01:35;0.82;;;0.70;;
19826;SDS011;10074;52.018;4.726;2023-05-10T11:06:36;2.42;;;1.35;;
19826;SDS011;10074;52.018;4.726;2023-05-10T11:11:48;1.35;;;0.80;;
19826;SDS011;10074;52.018;4.726;2023-05-10T11:16:50;0.90;;;0.90;;
19826;SDS011;10074;52.018;4.726;2023-05-10T11:21:51;2.40;;;0.70;;
19826;SDS011;10074;52.018;4.726;2023-05-10T11:27:13;1.00;;;0.80;;
19826;SDS011;10074;52.018;4.726;2023-05-10T11:32:13;0.88;;;0.75;;
19826;SDS011;10074;52.018;4.726;2023-05-10T11:37:14;1.20;;;1.00;;
19826;SDS011;10074;52.018;4.726;2023-05-10T11:42:14;1.27;;;1.17;;
19826;SDS011;10074;52.018;4.726;2023-05-10T11:47:14;0.75;;;0.75;;
19826;SDS011;10074;52.018;4.726;2023-05-10T11:52:15;1.52;;;1.40;;
19826;SDS011;10074;52.018;4.726;2023-05-10T11:57:15;1.60;;;1.40;;
19826;SDS011;10074;52.018;4.726;2023-05-10T12:02:15;2.55;;;1.30;;
19826;SDS011;10074;52.018;4.726;2023-05-10T12:07:16;1.50;;;1.40;;
19826;SDS011;10074;52.018;4.726;2023-05-10T12:12:17;1.85;;;0.95;;
19826;SDS011;10074;52.018;4.726;2023-05-10T12:17:17;1.38;;;1.25;;
19826;SDS011;10074;52.018;4.726;2023-05-10T12:22:20;2.33;;;1.00;;
19826;SDS011;10074;52.018;4.726;2023-05-10T12:27:20;1.45;;;1.10;;
19826;SDS011;10074;52.018;4.726;2023-05-10T12:32:21;1.33;;;1.20;;
19826;SDS011;10074;52.018;4.726;2023-05-10T12:37:23;0.70;;;0.70;;
19826;SDS011;10074;52.018;4.726;2023-05-10T12:42:27;0.68;;;0.68;;
19826;SDS011;10074;52.018;4.726;2023-05-10T12:47:27;1.73;;;0.80;;
19826;SDS011;10074;52.018;4.726;2023-05-10T12:52:28;1.70;;;1.60;;
19826;SDS011;10074;52.018;4.726;2023-05-10T12:57:28;1.50;;;1.40;;
19826;SDS011;10074;52.018;4.726;2023-05-10T13:02:29;1.15;;;0.95;;
19826;SDS011;10074;52.018;4.726;2023-05-10T13:07:29;2.13;;;1.33;;
19826;SDS011;10074;52.018;4.726;2023-05-10T13:12:29;2.40;;;1.45;;
19826;SDS011;10074;52.018;4.726;2023-05-10T13:17:30;1.25;;;0.98;;
19826;SDS011;10074;52.018;4.726;2023-05-10T13:22:30;0.88;;;0.70;;
19826;SDS011;10074;52.018;4.726;2023-05-10T13:27:30;1.05;;;0.93;;
19826;SDS011;10074;52.018;4.726;2023-05-10T13:32:31;0.87;;;0.77;;
19826;SDS011;10074;52.018;4.726;2023-05-10T13:37:31;1.90;;;0.87;;
19826;SDS011;10074;52.018;4.726;2023-05-10T13:42:35;1.13;;;1.02;;
19826;SDS011;10074;52.018;4.726;2023-05-10T13:47:35;1.52;;;1.10;;
19826;SDS011;10074;52.018;4.726;2023-05-10T13:52:36;3.70;;;1.88;;
19826;SDS011;10074;52.018;4.726;2023-05-10T13:57:36;0.75;;;0.75;;
19826;SDS011;10074;52.018;4.726;2023-05-10T14:02:36;0.90;;;0.90;;
19826;SDS011;10074;52.018;4.726;2023-05-10T14:07:37;1.00;;;0.90;;
19826;SDS011;10074;52.018;4.726;2023-05-10T14:12:37;0.95;;;0.90;;
19826;SDS011;10074;52.018;4.726;2023-05-10T14:17:37;0.98;;;0.88;;
19826;SDS011;10074;52.018;4.726;2023-05-10T14:22:37;1.48;;;1.05;;
19826;SDS011;10074;52.018;4.726;2023-05-10T14:27:38;0.70;;;0.70;;
19826;SDS011;10074;52.018;4.726;2023-05-10T14:32:38;1.63;;;0.85;;
19826;SDS011;10074;52.018;4.726;2023-05-10T14:37:38;1.75;;;1.65;;
19826;SDS011;10074;52.018;4.726;2023-05-10T14:42:38;1.30;;;1.20;;
19826;SDS011;10074;52.018;4.726;2023-05-10T14:47:39;1.40;;;0.70;;
19826;SDS011;10074;52.018;4.726;2023-05-10T14:52:39;1.58;;;1.48;;
19826;SDS011;10074;52.018;4.726;2023-05-10T14:57:39;5.25;;;0.95;;
19826;SDS011;10074;52.018;4.726;2023-05-10T15:02:40;0.73;;;0.73;;
19826;SDS011;10074;52.018;4.726;2023-05-10T15:07:40;1.45;;;1.35;;
19826;SDS011;10074;52.018;4.726;2023-05-10T15:12:40;1.50;;;1.25;;
19826;SDS011;10074;52.018;4.726;2023-05-10T15:17:41;0.90;;;0.90;;
19826;SDS011;10074;52.018;4.726;2023-05-10T15:22:41;0.98;;;0.85;;
19826;SDS011;10074;52.018;4.726;2023-05-10T15:27:41;0.93;;;0.93;;
19826;SDS011;10074;52.018;4.726;2023-05-10T15:32:43;1.27;;;1.17;;
19826;SDS011;10074;52.018;4.726;2023-05-10T15:37:44;1.42;;;1.33;;
19826;SDS011;10074;52.018;4.726;2023-05-10T15:42:44;1.50;;;1.38;;
19826;SDS011;10074;52.018;4.726;2023-05-10T15:47:45;1.42;;;1.23;;
19826;SDS011;10074;52.018;4.726;2023-05-10T15:52:46;1.40;;;1.30;;
19826;SDS011;10074;52.018;4.726;2023-05-10T15:57:46;0.85;;;0.82;;
19826;SDS011;10074;52.018;4.726;2023-05-10T16:02:47;1.30;;;0.82;;
19826;SDS011;10074;52.018;4.726;2023-05-10T16:07:48;2.67;;;0.70;;
19826;SDS011;10074;52.018;4.726;2023-05-10T16:12:48;1.83;;;1.13;;
19826;SDS011;10074;52.018;4.726;2023-05-10T16:17:48;1.08;;;0.90;;
19826;SDS011;10074;52.018;4.726;2023-05-10T16:22:48;2.63;;;1.63;;
19826;SDS011;10074;52.018;4.726;2023-05-10T16:27:49;1.23;;;0.98;;
19826;SDS011;10074;52.018;4.726;2023-05-10T16:32:50;2.10;;;1.00;;
19826;SDS011;10074;52.018;4.726;2023-05-10T16:37:50;0.50;;;0.50;;
19826;SDS011;10074;52.018;4.726;2023-05-10T16:42:51;1.70;;;1.55;;
19826;SDS011;10074;52.018;4.726;2023-05-10T16:47:51;0.60;;;0.60;;
19826;SDS011;10074;52.018;4.726;2023-05-10T16:52:54;1.08;;;0.70;;
19826;SDS011;10074;52.018;4.726;2023-05-10T16:57:54;7.22;;;1.48;;
19826;SDS011;10074;52.018;4.726;2023-05-10T17:03:00;2.50;;;0.75;;
19826;SDS011;10074;52.018;4.726;2023-05-10T17:08:00;1.13;;;1.02;;
19826;SDS011;10074;52.018;4.726;2023-05-10T17:13:00;1.23;;;0.55;;
19826;SDS011;10074;52.018;4.726;2023-05-10T17:18:02;3.47;;;1.45;;
19826;SDS011;10074;52.018;4.726;2023-05-10T17:23:03;1.42;;;1.33;;
19826;SDS011;10074;52.018;4.726;2023-05-10T17:28:03;0.50;;;0.50;;
19826;SDS011;10074;52.018;4.726;2023-05-10T17:33:04;1.30;;;1.20;;
19826;SDS011;10074;52.018;4.726;2023-05-10T17:38:04;1.42;;;1.38;;
19826;SDS011;10074;52.018;4.726;2023-05-10T17:43:05;2.00;;;1.38;;
19826;SDS011;10074;52.018;4.726;2023-05-10T17:48:05;1.30;;;1.20;;
19826;SDS011;10074;52.018;4.726;2023-05-10T17:53:06;1.70;;;1.02;;
19826;SDS011;10074;52.018;4.726;2023-05-10T17:58:08;1.00;;;0.90;;
19826;SDS011;10074;52.018;4.726;2023-05-10T18:03:09;1.30;;;1.20;;
19826;SDS011;10074;52.018;4.726;2023-05-10T18:08:10;1.25;;;1.15;;
19826;SDS011;10074;52.018;4.726;2023-05-10T18:13:10;1.75;;;1.20;;
19826;SDS011;10074;52.018;4.726;2023-05-10T18:18:10;1.52;;;1.05;;
19826;SDS011;10074;52.018;4.726;2023-05-10T18:23:11;1.45;;;0.77;;
19826;SDS011;10074;52.018;4.726;2023-05-10T18:28:12;1.23;;;0.95;;
19826;SDS011;10074;52.018;4.726;2023-05-10T18:33:12;1.05;;;0.65;;
19826;SDS011;10074;52.018;4.726;2023-05-10T18:38:12;0.80;;;0.80;;
19826;SDS011;10074;52.018;4.726;2023-05-10T18:43:13;2.30;;;1.55;;
19826;SDS011;10074;52.018;4.726;2023-05-10T18:48:13;2.05;;;0.95;;
19826;SDS011;10074;52.018;4.726;2023-05-10T18:53:13;2.88;;;1.80;;
19826;SDS011;10074;52.018;4.726;2023-05-10T18:58:14;3.63;;;1.27;;
19826;SDS011;10074;52.018;4.726;2023-05-10T19:03:14;1.48;;;1.00;;
19826;SDS011;10074;52.018;4.726;2023-05-10T19:08:14;2.40;;;1.15;;
19826;SDS011;10074;52.018;4.726;2023-05-10T19:13:15;1.35;;;0.75;;
19826;SDS011;10074;52.018;4.726;2023-05-10T19:18:16;1.75;;;1.17;;
19826;SDS011;10074;52.018;4.726;2023-05-10T19:23:16;2.35;;;1.15;;
19826;SDS011;10074;52.018;4.726;2023-05-10T19:28:16;2.15;;;1.38;;
19826;SDS011;10074;52.018;4.726;2023-05-10T19:33:17;1.60;;;1.50;;
19826;SDS011;10074;52.018;4.726;2023-05-10T19:38:19;1.80;;;1.13;;
19826;SDS011;10074;52.018;4.726;2023-05-10T19:43:21;1.33;;;1.20;;
19826;SDS011;10074;52.018;4.726;2023-05-10T19:48:21;1.83;;;1.67;;
19826;SDS011;10074;52.018;4.726;2023-05-10T19:53:21;3.28;;;1.63;;
19826;SDS011;10074;52.018;4.726;2023-05-10T19:58:22;1.27;;;1.17;;
19826;SDS011;10074;52.018;4.726;2023-05-10T20:03:23;3.00;;;1.60;;
19826;SDS011;10074;52.018;4.726;2023-05-10T20:08:23;2.15;;;1.63;;
19826;SDS011;10074;52.018;4.726;2023-05-10T20:13:24;2.90;;;1.52;;
19826;SDS011;10074;52.018;4.726;2023-05-10T20:18:25;0.95;;;0.80;;
19826;SDS011;10074;52.018;4.726;2023-05-10T20:23:25;1.40;;;1.30;;
19826;SDS011;10074;52.018;4.726;2023-05-10T20:28:26;1.65;;;1.35;;
19826;SDS011;10074;52.018;4.726;2023-05-10T20:33:27;1.60;;;1.33;;
19826;SDS011;10074;52.018;4.726;2023-05-10T20:38:27;2.72;;;1.63;;
19826;SDS011;10074;52.018;4.726;2023-05-10T20:43:27;1.98;;;1.42;;
19826;SDS011;10074;52.018;4.726;2023-05-10T20:48:28;1.95;;;1.50;;
19826;SDS011;10074;52.018;4.726;2023-05-10T20:53:28;2.33;;;1.63;;
19826;SDS011;10074;52.018;4.726;2023-05-10T20:58:29;2.80;;;1.83;;
19826;SDS011;10074;52.018;4.726;2023-05-10T21:03:29;2.20;;;2.00;;
19826;SDS011;10074;52.018;4.726;2023-05-10T21:08:30;0.85;;;0.70;;
19826;SDS011;10074;52.018;4.726;2023-05-10T21:13:31;2.72;;;1.42;;
19826;SDS011;10074;52.018;4.726;2023-05-10T21:18:31;2.08;;;1.85;;
19826;SDS011;10074;52.018;4.726;2023-05-10T21:23:32;1.38;;;1.08;;
19826;SDS011;10074;52.018;4.726;2023-05-10T21:28:32;2.70;;;1.40;;
19826;SDS011;10074;52.018;4.726;2023-05-10T21:33:33;1.50;;;1.38;;
19826;SDS011;10074;52.018;4.726;2023-05-10T21:38:33;1.25;;;1.15;;
19826;SDS011;10074;52.018;4.726;2023-05-10T21:43:34;3.58;;;1.40;;
19826;SDS011;10074;52.018;4.726;2023-05-10T21:48:34;1.60;;;1.10;;
19826;SDS011;10074;52.018;4.726;2023-05-10T21:53:35;1.70;;;1.27;;
19826;SDS011;10074;52.018;4.726;2023-05-10T21:58:36;2.28;;;1.77;;
19826;SDS011;10074;52.018;4.726;2023-05-10T22:03:36;2.72;;;1.83;;
19826;SDS011;10074;52.018;4.726;2023-05-10T22:08:37;2.08;;;1.08;;
19826;SDS011;10074;52.018;4.726;2023-05-10T22:13:37;1.63;;;1.52;;
19826;SDS011;10074;52.018;4.726;2023-05-10T22:18:37;1.75;;;1.58;;
19826;SDS011;10074;52.018;4.726;2023-05-10T22:23:38;1.73;;;1.63;;
19826;SDS011;10074;52.018;4.726;2023-05-10T22:28:38;10.88;;;2.45;;
19826;SDS011;10074;52.018;4.726;2023-05-10T22:33:39;1.63;;;1.27;;
19826;SDS011;10074;52.018;4.726;2023-05-10T22:38:39;1.33;;;1.23;;
19826;SDS011;10074;52.018;4.726;2023-05-10T22:43:39;2.83;;;2.38;;
19826;SDS011;10074;52.018;4.726;2023-05-10T22:48:40;3.00;;;2.42;;
19826;SDS011;10074;52.018;4.726;2023-05-10T22:53:41;2.15;;;1.48;;
19826;SDS011;10074;52.018;4.726;2023-05-10T22:58:42;2.10;;;1.90;;
19826;SDS011;10074;52.018;4.726;2023-05-10T23:03:42;1.75;;;1.30;;
19826;SDS011;10074;52.018;4.726;2023-05-10T23:08:42;1.40;;;1.30;;
19826;SDS011;10074;52.018;4.726;2023-05-10T23:13:43;2.40;;;2.22;;
19826;SDS011;10074;52.018;4.726;2023-05-10T23:18:43;2.85;;;1.92;;
19826;SDS011;10074;52.018;4.726;2023-05-10T23:23:44;2.47;;;2.23;;
19826;SDS011;10074;52.018;4.726;2023-05-10T23:28:44;2.53;;;2.33;;
19826;SDS011;10074;52.018;4.726;2023-05-10T23:33:45;2.73;;;2.50;;
19826;SDS011;10074;52.018;4.726;2023-05-10T23:38:45;4.45;;;1.30;;
19826;SDS011;10074;52.018;4.726;2023-05-10T23:43:47;3.17;;;1.58;;
19826;SDS011;10074;52.018;4.726;2023-05-10T23:48:47;1.50;;;1.40;;
19826;SDS011;10074;52.018;4.726;2023-05-10T23:53:47;2.65;;;2.17;;
19826;SDS011;10074;52.018;4.726;2023-05-10T23:58:47;4.40;;;3.00;;
